Time;durP1;ratioP1;P1;durP2;ratioP2;P2;SDS_P1;SDS_P2;PMS_P1;PMS_P2;Temp;Humidity;BMP_temperature;BMP_pressure;BME280_temperature;BME280_humidity;BME280_pressure;Samples;Min_cycle;Max_cycle;Signal;HPM_P1;HPM_P2
2022/03/05 00:01:30;;;;;;;17.65;8.95;;;;;;;-2.74;100.00;95334.56;5002735;28;20163;-65
2022/03/05 00:03:56;;;;;;;17.50;8.63;;;;;;;-2.78;100.00;95318.38;5036775;28;20036;-64
2022/03/05 00:06:21;;;;;;;16.10;8.30;;;;;;;-2.79;100.00;95311.53;5036185;28;20029;-64
2022/03/05 00:08:47;;;;;;;18.38;9.48;;;;;;;-2.83;100.00;95304.16;5031991;28;20067;-65
2022/03/05 00:11:12;;;;;;;16.70;8.75;;;;;;;-2.86;100.00;95291.41;5038379;28;20029;-65
2022/03/05 00:13:37;;;;;;;18.33;9.27;;;;;;;-2.96;100.00;95286.41;5038403;28;20033;-65
2022/03/05 00:16:04;;;;;;;21.50;9.25;;;;;;;-3.05;100.00;95277.00;5038426;28;20025;-65
2022/03/05 00:18:30;;;;;;;18.35;9.48;;;;;;;-3.07;100.00;95271.13;5038311;28;20021;-65
2022/03/05 00:20:56;;;;;;;16.58;9.45;;;;;;;-2.95;100.00;95259.22;5038325;28;20482;-65
2022/03/05 00:23:22;;;;;;;15.40;8.40;;;;;;;-2.88;100.00;95259.34;5037169;28;20136;-64
2022/03/05 00:25:48;;;;;;;22.52;9.10;;;;;;;-2.94;100.00;95247.75;5038399;28;20021;-64
2022/03/05 00:28:14;;;;;;;15.85;8.57;;;;;;;-2.98;100.00;95246.47;5038327;28;20025;-64
2022/03/05 00:30:39;;;;;;;19.88;9.50;;;;;;;-2.98;100.00;95243.84;5020534;28;20028;-64
2022/03/05 00:33:05;;;;;;;18.90;9.05;;;;;;;-2.96;100.00;95241.88;5038267;28;20025;-64
2022/03/05 00:35:31;;;;;;;20.00;9.57;;;;;;;-2.92;100.00;95240.53;5038140;28;20025;-63
2022/03/05 00:37:57;;;;;;;17.73;9.07;;;;;;;-2.88;100.00;95233.94;5037545;28;20021;-63
2022/03/05 00:40:22;;;;;;;20.05;8.55;;;;;;;-2.79;100.00;95222.38;5036571;28;20055;-63
2022/03/05 00:42:50;;;;;;;18.45;8.40;;;;;;;-2.71;100.00;95229.38;5038233;28;20029;-63
2022/03/05 00:45:16;;;;;;;16.42;8.55;;;;;;;-2.66;100.00;95233.06;5024475;28;20021;-63
2022/03/05 00:47:41;;;;;;;19.08;9.00;;;;;;;-2.60;100.00;95235.97;5038097;28;20029;-63
2022/03/05 00:50:07;;;;;;;16.23;8.27;;;;;;;-2.52;100.00;95241.13;5035446;28;20114;-62
2022/03/05 00:52:42;;;;;;;17.98;8.82;;;;;;;-2.45;100.00;95247.28;5034854;28;20032;-62
2022/03/05 00:55:08;;;;;;;17.15;9.02;;;;;;;-2.40;100.00;95250.16;5022946;28;20032;-62
2022/03/05 00:57:34;;;;;;;18.02;8.77;;;;;;;-2.45;100.00;95255.16;5017230;28;20026;-62
2022/03/05 00:59:59;;;;;;;17.42;8.35;;;;;;;-2.47;100.00;95262.38;5035384;28;20029;-61
2022/03/05 01:02:24;;;;;;;18.13;9.00;;;;;;;-2.48;100.00;95271.25;5034472;28;20515;-62
2022/03/05 01:04:56;;;;;;;17.95;9.20;;;;;;;-2.52;100.00;95270.78;5017237;28;20018;-62
2022/03/05 01:07:21;;;;;;;19.98;9.18;;;;;;;-2.58;100.00;95268.88;5027379;28;20013;-62
2022/03/05 01:09:47;;;;;;;18.80;9.32;;;;;;;-2.69;100.00;95264.09;5034688;28;20025;-62
2022/03/05 01:12:12;;;;;;;18.92;8.95;;;;;;;-2.83;100.00;95270.91;5034607;28;20025;-62
2022/03/05 01:14:38;;;;;;;22.30;9.15;;;;;;;-2.98;100.00;95265.63;5033376;28;20029;-62
2022/03/05 01:17:06;;;;;;;21.50;9.00;;;;;;;-3.13;100.00;95267.41;5034419;28;20113;-62
2022/03/05 01:19:32;;;;;;;20.00;8.93;;;;;;;-3.25;100.00;95261.78;5034496;28;20060;-61
2022/03/05 01:21:57;;;;;;;17.15;8.63;;;;;;;-3.41;100.00;95261.06;5034550;28;20029;-62
2022/03/05 01:24:22;;;;;;;15.25;8.35;;;;;;;-3.58;100.00;95257.75;5016740;28;20041;-62
2022/03/05 01:26:51;;;;;;;21.10;9.95;;;;;;;-3.74;100.00;95260.44;5017148;28;20380;-62
2022/03/05 01:29:16;;;;;;;17.33;8.35;;;;;;;-3.91;100.00;95254.47;5034399;28;20025;-61
2022/03/05 01:31:42;;;;;;;18.92;9.15;;;;;;;-4.10;100.00;95253.94;5034166;28;20025;-62
2022/03/05 01:34:07;;;;;;;18.13;8.48;;;;;;;-4.24;100.00;95246.78;5034290;28;20033;-62
2022/03/05 01:36:32;;;;;;;18.92;8.55;;;;;;;-4.32;100.00;95243.41;5034411;28;20383;-62
2022/03/05 01:39:01;;;;;;;20.02;9.43;;;;;;;-4.42;100.00;95238.38;5034515;28;20420;-62
2022/03/05 01:41:27;;;;;;;18.25;8.55;;;;;;;-4.50;100.00;95230.53;5034347;28;20115;-61
2022/03/05 01:43:55;;;;;;;19.27;8.57;;;;;;;-4.55;100.00;95225.03;5034156;28;20035;-61
2022/03/05 01:46:29;;;;;;;16.80;9.18;;;;;;;-4.62;100.00;95217.03;5034259;28;20388;-56
2022/03/05 01:48:55;;;;;;;18.48;9.23;;;;;;;-4.68;100.00;95212.47;5034317;28;20057;-62
2022/03/05 01:51:27;;;;;;;18.83;8.73;;;;;;;-4.75;100.00;95204.50;5034116;28;20108;-61
2022/03/05 01:53:52;;;;;;;21.33;9.02;;;;;;;-4.79;100.00;95190.13;5034291;28;20084;-61
2022/03/05 01:56:25;;;;;;;16.98;8.88;;;;;;;-4.75;100.00;95173.13;5033995;28;20026;-62
2022/03/05 01:58:51;;;;;;;;;;;;;;;-4.68;100.00;95154.97;5034393;28;20506;-61
2022/03/05 02:01:20;;;;;;;18.35;9.27;;;;;;;-4.61;100.00;95140.25;5032715;28;20019;-58
2022/03/05 02:03:48;;;;;;;18.80;9.18;;;;;;;-4.57;100.00;95125.03;5034168;28;20026;-61
2022/03/05 02:06:29;;;;;;;17.90;9.70;;;;;;;-4.63;100.00;95117.88;5033724;28;20044;-56
2022/03/05 02:09:00;;;;;;;15.77;8.57;;;;;;;-4.61;100.00;95113.28;5033606;28;20029;-57
2022/03/05 02:11:26;;;;;;;16.85;8.70;;;;;;;-4.67;100.00;95115.63;5015640;28;20049;-61
2022/03/05 02:13:53;;;;;;;21.58;9.63;;;;;;;-4.72;100.00;95111.88;5012554;28;20504;-55
2022/03/05 02:16:20;;;;;;;21.40;10.02;;;;;;;-4.72;100.00;95098.81;5032527;28;20056;-57
2022/03/05 02:18:47;;;;;;;19.20;9.63;;;;;;;-4.65;100.00;95091.13;5025401;28;20051;-57
2022/03/05 02:21:16;;;;;;;17.33;8.88;;;;;;;-4.58;100.00;95082.41;5033274;28;20124;-58
2022/03/05 02:23:48;;;;;;;22.98;9.52;;;;;;;-4.42;100.00;95071.88;5012244;28;20018;-57
2022/03/05 02:26:31;;;;;;;20.37;9.60;;;;;;;-4.34;100.00;95071.00;5012686;28;20017;-55
2022/03/05 02:29:00;;;;;;;17.63;8.95;;;;;;;-4.39;100.00;95078.53;5033319;28;20029;-58
2022/03/05 02:31:28;;;;;;;20.13;9.10;;;;;;;-4.50;100.00;95074.50;5033266;28;20079;-56
2022/03/05 02:33:58;;;;;;;18.00;9.15;;;;;;;-4.60;100.00;95067.88;5033053;28;20556;-58
2022/03/05 02:36:25;;;;;;;18.83;9.23;;;;;;;-4.71;100.00;95061.25;5032972;28;20041;-56
2022/03/05 02:39:00;;;;;;;19.98;9.10;;;;;;;-4.84;100.00;95056.56;5015339;28;20017;-58
2022/03/05 02:41:28;;;;;;;22.60;9.27;;;;;;;-4.94;100.00;95055.16;5032998;28;20025;-56
2022/03/05 02:44:02;;;;;;;16.88;9.48;;;;;;;-5.04;100.00;95055.34;5015239;28;20075;-54
2022/03/05 02:46:33;;;;;;;20.33;8.77;;;;;;;-5.18;100.00;95054.28;5015166;28;20075;-57
2022/03/05 02:48:58;;;;;;;19.92;9.15;;;;;;;-5.30;100.00;95056.44;5032834;28;20029;-58
2022/03/05 02:51:30;;;;;;;17.92;8.80;;;;;;;-5.39;100.00;95054.00;5014923;28;20029;-60
2022/03/05 02:53:55;;;;;;;19.65;8.77;;;;;;;-5.48;100.00;95050.59;5015218;28;20021;-55
2022/03/05 02:56:24;;;;;;;18.73;9.07;;;;;;;-5.56;100.00;95045.41;5032704;28;20025;-59
2022/03/05 02:58:50;;;;;;;21.10;9.35;;;;;;;-5.56;100.00;95033.16;5014947;28;20021;-56
2022/03/05 03:01:18;;;;;;;19.38;8.82;;;;;;;-5.40;100.00;95008.03;5014514;28;20026;-57
2022/03/05 03:04:02;;;;;;;20.67;9.88;;;;;;;-5.06;100.00;94992.03;5032744;28;20369;-59
2022/03/05 03:06:30;;;;;;;18.80;8.75;;;;;;;-4.84;100.00;94977.38;5024861;28;20163;-61
2022/03/05 03:08:56;;;;;;;19.63;8.90;;;;;;;-4.74;100.00;94980.59;5032679;28;20029;-57
2022/03/05 03:11:21;;;;;;;18.17;8.77;;;;;;;-4.72;100.00;94974.19;5032284;28;20108;-55
2022/03/05 03:13:47;;;;;;;20.25;8.68;;;;;;;-4.66;100.00;94970.09;5032085;28;20041;-58
2022/03/05 03:16:30;;;;;;;19.15;8.90;;;;;;;-4.62;100.00;94975.78;5032290;28;20147;-55
2022/03/05 03:18:56;;;;;;;17.85;9.25;;;;;;;-4.62;100.00;94970.53;5032457;28;20376;-57
2022/03/05 03:21:30;;;;;;;19.30;9.27;;;;;;;-4.67;100.00;94969.28;5016541;28;20129;-58
2022/03/05 03:23:56;;;;;;;16.38;8.98;;;;;;;-4.80;100.00;94974.25;5027897;28;20072;-59
2022/03/05 03:26:21;;;;;;;21.05;9.60;;;;;;;-4.89;100.00;94971.84;5030412;28;20025;-59
2022/03/05 03:29:04;;;;;;;20.92;8.27;;;;;;;-4.95;100.00;94973.38;5031426;28;20029;-59
2022/03/05 03:31:29;;;;;;;16.27;8.68;;;;;;;-4.99;100.00;94977.31;5032616;28;20021;-58
2022/03/05 03:33:54;;;;;;;22.08;9.95;;;;;;;-5.04;100.00;94969.16;5032478;28;20052;-58
2022/03/05 03:36:23;;;;;;;17.08;8.70;;;;;;;-5.08;100.00;94957.44;5032714;28;20421;-59
2022/03/05 03:38:48;;;;;;;18.77;8.15;;;;;;;-5.12;100.00;94958.75;5032255;28;20484;-56
2022/03/05 03:41:13;;;;;;;15.98;8.45;;;;;;;-5.18;100.00;94956.84;5032162;28;20027;-56
2022/03/05 03:43:39;;;;;;;18.40;8.57;;;;;;;-5.27;100.00;94956.88;5032126;28;20025;-55
2022/03/05 03:46:04;;;;;;;16.02;8.30;;;;;;;-5.35;100.00;94956.09;5018618;28;20113;-55
2022/03/05 03:48:29;;;;;;;21.63;8.65;;;;;;;-5.43;100.00;94943.91;5031251;28;20105;-56
2022/03/05 03:50:58;;;;;;;20.63;8.63;;;;;;;-5.53;100.00;94943.31;5032024;28;20032;-59
2022/03/05 03:53:23;;;;;;;19.55;8.63;;;;;;;-5.64;100.00;94934.06;5014670;28;20049;-59
2022/03/05 03:55:49;;;;;;;17.38;8.75;;;;;;;-5.76;100.00;94939.78;5032302;28;20036;-57
2022/03/05 03:58:15;;;;;;;18.02;8.40;;;;;;;-5.91;100.00;94942.31;5031069;28;20492;-58
2022/03/05 04:00:46;;;;;;;16.05;8.45;;;;;;;-6.00;100.00;94935.50;5032562;28;20049;-58
2022/03/05 04:03:18;;;;;;;15.27;7.78;;;;;;;-6.13;100.00;94936.81;5032295;28;20037;-59
2022/03/05 04:05:43;;;;;;;14.73;7.65;;;;;;;-6.22;100.00;94937.00;5032612;28;20484;-59
2022/03/05 04:10:52;;;;;;;18.23;8.15;;;;;;;-6.34;100.00;94923.50;5032151;28;20040;-55
2022/03/05 04:13:33;;;;;;;16.90;8.18;;;;;;;-6.36;100.00;94920.25;5032559;28;20022;-57
2022/03/05 04:15:59;;;;;;;14.45;7.35;;;;;;;-6.37;100.00;94910.00;5023596;28;20396;-58
2022/03/05 04:18:27;;;;;;;15.23;7.93;;;;;;;-6.43;100.00;94899.25;5021562;28;20028;-60
2022/03/05 04:21:01;;;;;;;17.10;8.05;;;;;;;-6.48;100.00;94887.72;5030766;28;20476;-56
2022/03/05 04:23:27;;;;;;;14.45;7.82;;;;;;;-6.51;100.00;94880.22;5028459;28;20040;-57
2022/03/05 04:25:53;;;;;;;17.48;7.90;;;;;;;-6.50;100.00;94866.22;5024151;28;20104;-58
2022/03/05 04:28:21;;;;;;;15.93;8.48;;;;;;;-6.48;100.00;94846.84;5052860;28;20376;-56
2022/03/05 04:30:46;;;;;;;16.02;8.00;;;;;;;-6.44;100.00;94847.31;5014364;28;20026;-54
2022/03/05 04:33:20;;;;;;;19.40;8.55;;;;;;;-6.42;100.00;94840.94;5032847;28;20105;-56
2022/03/05 04:35:46;;;;;;;16.52;8.40;;;;;;;-6.36;100.00;94833.44;5024049;28;20048;-57
2022/03/05 04:38:11;;;;;;;20.27;9.02;;;;;;;-6.38;100.00;94833.63;5035336;28;20108;-55
2022/03/05 04:40:39;;;;;;;16.17;8.48;;;;;;;-6.44;100.00;94831.66;5023947;28;20492;-54
2022/03/05 04:43:05;;;;;;;17.98;8.60;;;;;;;-6.53;100.00;94830.06;5014740;28;20034;-57
2022/03/05 04:45:30;;;;;;;15.25;7.80;;;;;;;-6.57;100.00;94828.78;5001055;28;20527;-55
2022/03/05 04:47:55;;;;;;;20.23;8.45;;;;;;;-6.59;100.00;94821.13;5035115;28;20124;-55
2022/03/05 04:50:21;;;;;;;20.10;8.85;;;;;;;-6.58;100.00;94816.72;5035292;28;20024;-54
2022/03/05 04:52:47;;;;;;;18.75;8.60;;;;;;;-6.63;100.00;94819.00;5035078;28;20025;-58
2022/03/05 04:55:21;;;;;;;15.80;8.32;;;;;;;-6.68;100.00;94816.91;5033808;28;20384;-55
2022/03/05 04:57:47;;;;;;;16.75;8.40;;;;;;;-6.68;100.00;94813.50;5017239;28;20116;-56
2022/03/05 05:00:13;;;;;;;18.38;8.43;;;;;;;-6.67;100.00;94813.31;5034447;28;20140;-56
2022/03/05 05:02:38;;;;;;;16.75;8.20;;;;;;;-6.73;100.00;94806.16;5035231;28;20050;-54
2022/03/05 05:05:05;;;;;;;18.58;8.13;;;;;;;-6.76;100.00;94806.50;5034726;28;20021;-57
2022/03/05 05:07:46;;;;;;;17.05;8.20;;;;;;;-6.79;100.00;94804.25;5035131;28;20385;-58
2022/03/05 05:10:11;;;;;;;18.15;8.50;;;;;;;-6.83;100.00;94803.75;5034698;28;20025;-55
2022/03/05 05:12:37;;;;;;;16.40;7.80;;;;;;;-6.82;100.00;94799.38;5034569;28;20505;-60
2022/03/05 05:15:03;;;;;;;17.65;8.15;;;;;;;-6.81;100.00;94796.59;5034657;28;20021;-57
2022/03/05 05:17:34;;;;;;;17.92;8.27;;;;;;;-6.66;100.00;94796.72;5034844;28;20021;-58
2022/03/05 05:19:59;;;;;;;16.90;8.07;;;;;;;-6.64;100.00;94789.53;5016906;28;20051;-57
2022/03/05 05:22:25;;;;;;;17.77;8.10;;;;;;;-6.60;100.00;94792.66;5034552;28;20025;-58
2022/03/05 05:24:53;;;;;;;19.08;8.95;;;;;;;-6.50;100.00;94785.47;5016596;28;20172;-58
2022/03/05 05:27:21;;;;;;;21.40;8.45;;;;;;;-6.36;100.00;94781.34;5032523;28;20504;-55
2022/03/05 05:29:47;;;;;;;18.98;7.78;;;;;;;-6.18;100.00;94787.13;5022775;28;20065;-56
2022/03/05 05:32:19;;;;;;;14.93;7.82;;;;;;;-5.93;100.00;94788.63;5016808;28;20025;-56
2022/03/05 05:34:45;;;;;;;18.42;8.05;;;;;;;-5.62;100.00;94774.75;5034292;28;20025;-58
2022/03/05 05:37:10;;;;;;;13.85;7.15;;;;;;;-5.45;100.00;94765.78;5033802;28;20026;-57
2022/03/05 05:39:36;;;;;;;14.60;7.25;;;;;;;-5.40;100.00;94758.25;5034194;28;20116;-58
2022/03/05 05:42:02;;;;;;;18.13;8.35;;;;;;;-5.29;100.00;94757.03;5034180;28;20492;-53
2022/03/05 05:44:27;;;;;;;19.02;7.63;;;;;;;-5.29;100.00;94760.47;5034230;28;20033;-57
2022/03/05 05:46:53;;;;;;;15.75;7.45;;;;;;;-5.29;100.00;94763.06;5000198;28;20014;-57
2022/03/05 05:49:21;;;;;;;18.42;7.88;;;;;;;-5.34;100.00;94767.19;5034210;28;20029;-57
2022/03/05 05:51:55;;;;;;;17.02;7.68;;;;;;;-5.41;100.00;94761.06;5033890;28;20451;-58
2022/03/05 05:54:22;;;;;;;13.95;6.90;;;;;;;-5.52;100.00;94764.88;5033782;28;20384;-58
2022/03/05 05:56:53;;;;;;;14.50;7.70;;;;;;;-5.68;100.00;94776.22;5033931;28;20021;-53
2022/03/05 05:59:19;;;;;;;16.85;7.75;;;;;;;-5.85;100.00;94777.31;5033851;28;20048;-55
2022/03/05 06:01:44;;;;;;;14.05;7.35;;;;;;;-5.97;100.00;94778.69;5029340;28;20053;-57
2022/03/05 06:04:09;;;;;;;15.77;7.22;;;;;;;-6.07;100.00;94783.34;5034109;28;20388;-58
2022/03/05 06:06:38;;;;;;;16.15;8.15;;;;;;;-6.09;100.00;94777.47;5033777;28;20049;-53
2022/03/05 06:09:04;;;;;;;16.70;8.00;;;;;;;-6.05;100.00;94782.19;5033667;28;20384;-58
2022/03/05 06:11:30;;;;;;;19.00;7.75;;;;;;;-6.00;100.00;94785.06;5033609;28;20026;-56
2022/03/05 06:13:56;;;;;;;16.13;7.50;;;;;;;-5.92;100.00;94777.22;5015920;28;20032;-55
2022/03/05 06:16:22;;;;;;;17.30;8.63;;;;;;;-5.85;100.00;94777.31;5033618;28;20083;-56
2022/03/05 06:18:50;;;;;;;18.75;8.20;;;;;;;-5.76;100.00;94778.88;5032262;28;20423;-58
2022/03/05 06:21:16;;;;;;;17.50;7.60;;;;;;;-5.71;100.00;94780.97;5033574;28;20132;-58
2022/03/05 06:23:44;;;;;;;14.93;7.80;;;;;;;-5.64;100.00;94779.31;5033421;28;20033;-57
2022/03/05 06:26:12;;;;;;;13.82;7.32;;;;;;;-5.60;100.00;94777.97;5033364;28;20020;-57
2022/03/05 06:28:38;;;;;;;16.17;7.82;;;;;;;-5.62;100.00;94787.78;5012461;28;20091;-53
2022/03/05 06:31:06;;;;;;;16.15;7.65;;;;;;;-5.67;100.00;94790.88;5031874;28;20021;-58
2022/03/05 06:33:35;;;;;;;17.15;7.03;;;;;;;-5.70;100.00;94790.44;5015456;28;20387;-57
2022/03/05 06:36:09;;;;;;;13.88;6.70;;;;;;;-5.65;100.00;94795.94;5033214;28;20383;-54
2022/03/05 06:38:38;;;;;;;13.40;7.28;;;;;;;-5.53;100.00;94788.53;5021852;28;20409;-56
2022/03/05 06:41:03;;;;;;;17.30;7.57;;;;;;;-5.43;100.00;94792.53;5020109;28;20083;-56
2022/03/05 06:43:28;;;;;;;16.60;7.88;;;;;;;-5.34;100.00;94798.50;5033076;28;20025;-58
2022/03/05 06:45:54;;;;;;;15.23;7.38;;;;;;;-5.28;100.00;94809.06;4966938;28;20374;-53
2022/03/05 06:48:22;;;;;;;15.43;7.10;;;;;;;-5.11;100.00;94817.56;4992860;28;20029;-58
2022/03/05 06:50:48;;;;;;;13.70;6.35;;;;;;;-4.97;100.00;94808.19;5018283;28;20029;-57
2022/03/05 06:53:16;;;;;;;14.52;6.32;;;;;;;-4.86;100.00;94815.59;5013354;28;20052;-58
2022/03/05 06:55:42;;;;;;;13.57;6.13;;;;;;;-4.73;100.00;94820.22;5035423;28;20475;-55
2022/03/05 06:58:08;;;;;;;12.90;6.65;;;;;;;-4.58;100.00;94805.34;5028617;28;20036;-56
2022/03/05 07:00:33;;;;;;;13.95;6.50;;;;;;;-4.43;100.00;94814.03;5040118;28;20064;-54
2022/03/05 07:02:58;;;;;;;12.93;6.65;;;;;;;-4.28;100.00;94814.03;5021318;28;20079;-53
2022/03/05 07:05:24;;;;;;;15.10;6.85;;;;;;;-4.12;100.00;94820.91;4995196;28;20021;-60
2022/03/05 07:07:50;;;;;;;15.55;7.07;;;;;;;-3.99;100.00;94820.25;5007168;28;20018;-57
2022/03/05 07:10:15;;;;;;;14.68;6.50;;;;;;;-3.88;100.00;94830.28;5008647;28;20068;-57
2022/03/05 07:12:41;;;;;;;11.85;6.03;;;;;;;-3.78;100.00;94830.00;5012551;28;20541;-56
2022/03/05 07:15:07;;;;;;;13.30;6.65;;;;;;;-3.68;100.00;94828.72;5011349;28;20497;-52
2022/03/05 07:17:32;;;;;;;12.77;6.50;;;;;;;-3.59;100.00;94835.44;4995058;28;20381;-59
2022/03/05 07:19:58;;;;;;;11.07;5.93;;;;;;;-3.51;100.00;94837.16;5012949;28;20018;-52
2022/03/05 07:22:23;;;;;;;11.93;5.75;;;;;;;-3.45;100.00;94841.66;5011287;28;20022;-56
2022/03/05 07:24:49;;;;;;;13.43;6.50;;;;;;;-3.38;100.00;94844.31;5010094;28;20029;-55
2022/03/05 07:27:16;;;;;;;13.95;6.18;;;;;;;-3.32;100.00;94856.69;5014811;28;20017;-54
2022/03/05 07:29:43;;;;;;;13.07;5.97;;;;;;;-3.22;100.00;94860.63;4975072;28;20440;-57
2022/03/05 07:32:10;;;;;;;14.63;6.55;;;;;;;-3.03;100.00;94872.34;5009081;28;20030;-55
2022/03/05 07:34:36;;;;;;;11.15;5.15;;;;;;;-2.79;100.00;94871.16;5007275;28;20477;-56
2022/03/05 07:37:02;;;;;;;12.10;6.28;;;;;;;-2.51;100.00;94879.03;5004364;28;20109;-53
2022/03/05 07:39:27;;;;;;;11.77;6.03;;;;;;;-2.23;100.00;94883.50;5003648;28;20026;-58
2022/03/05 07:41:55;;;;;;;14.07;6.32;;;;;;;-1.96;100.00;94897.59;5008341;28;20040;-53
2022/03/05 07:44:21;;;;;;;15.73;6.13;;;;;;;-1.75;100.00;94908.03;5008184;28;20496;-54
2022/03/05 07:46:52;;;;;;;13.48;5.78;;;;;;;-1.59;100.00;94927.94;4991222;28;20025;-55
2022/03/05 07:49:21;;;;;;;12.60;5.80;;;;;;;-1.42;100.00;94941.56;4998119;28;20097;-58
2022/03/05 07:51:46;;;;;;;11.38;5.68;;;;;;;-1.26;100.00;94960.44;5017022;28;20021;-61
2022/03/05 07:54:12;;;;;;;11.98;5.50;;;;;;;-1.07;100.00;94977.31;5009967;28;20025;-61
2022/03/05 07:56:37;;;;;;;11.18;6.03;;;;;;;-0.93;100.00;95002.66;5010561;28;20044;-62
2022/03/05 07:59:03;;;;;;;9.95;5.75;;;;;;;-0.72;100.00;95020.13;5013686;28;20134;-62
2022/03/05 08:01:31;;;;;;;13.23;5.95;;;;;;;-0.56;100.00;95047.91;5014216;28;20032;-62
2022/03/05 08:03:57;;;;;;;10.70;5.25;;;;;;;-0.37;100.00;95072.69;5030852;28;20021;-61
2022/03/05 08:06:22;;;;;;;13.25;6.03;;;;;;;-0.25;100.00;95102.69;5027551;28;20030;-62
2022/03/05 08:08:47;;;;;;;9.60;5.53;;;;;;;-0.11;100.00;95127.22;5014939;28;20121;-63
2022/03/05 08:11:16;;;;;;;11.73;5.75;;;;;;;0.04;100.00;95153.41;5032967;28;20029;-63
2022/03/05 08:13:41;;;;;;;11.43;5.30;;;;;;;0.14;100.00;95172.28;5055748;28;20031;-64
2022/03/05 08:16:07;;;;;;;11.30;5.80;;;;;;;0.21;100.00;95191.53;5037539;28;20597;-64
2022/03/05 08:18:33;;;;;;;11.00;5.80;;;;;;;0.31;100.00;95213.03;5055813;28;20103;-64
2022/03/05 08:20:58;;;;;;;11.05;6.10;;;;;;;0.37;100.00;95228.06;5055725;28;20451;-66
2022/03/05 08:23:23;;;;;;;11.48;6.30;;;;;;;0.46;100.00;95234.00;5055742;28;20025;-66
2022/03/05 08:25:52;;;;;;;10.82;6.10;;;;;;;0.67;100.00;95252.28;5054449;28;20020;-66
2022/03/05 08:28:20;;;;;;;12.68;6.18;;;;;;;0.93;100.00;95269.16;5006400;28;20068;-67
2022/03/05 08:30:51;;;;;;;11.40;6.47;;;;;;;1.09;100.00;95284.63;5017564;28;20025;-67
2022/03/05 08:33:17;;;;;;;11.15;5.82;;;;;;;1.16;100.00;95298.63;5035425;28;20066;-67
2022/03/05 08:35:43;;;;;;;10.95;6.40;;;;;;;1.27;100.00;95308.59;5017457;28;20412;-67
2022/03/05 08:38:11;;;;;;;9.90;5.68;;;;;;;1.59;100.00;95320.19;5035333;28;20025;-67
2022/03/05 08:40:36;;;;;;;12.13;6.63;;;;;;;1.72;100.00;95338.66;5028817;28;20030;-66
2022/03/05 08:43:02;;;;;;;11.57;6.25;;;;;;;1.73;100.00;95357.94;5035160;28;20032;-66
2022/03/05 08:45:27;;;;;;;11.00;6.20;;;;;;;1.57;100.00;95376.84;5035097;28;20197;-66
2022/03/05 08:47:53;;;;;;;13.23;7.03;;;;;;;1.67;100.00;95393.91;5035279;28;20388;-65
2022/03/05 08:50:18;;;;;;;11.50;6.65;;;;;;;1.80;100.00;95397.56;5027606;28;20042;-65
2022/03/05 08:52:47;;;;;;;11.18;6.47;;;;;;;1.86;100.00;95420.53;5015002;28;20025;-65
2022/03/05 08:55:16;;;;;;;12.13;6.90;;;;;;;1.56;100.00;95428.81;5016348;28;20044;-65
2022/03/05 08:57:42;;;;;;;14.65;6.68;;;;;;;1.74;100.00;95430.91;5033986;28;20087;-65
2022/03/05 09:00:11;;;;;;;14.35;6.07;;;;;;;2.01;100.00;95440.44;5034267;28;20043;-65
2022/03/05 09:02:40;;;;;;;11.82;6.38;;;;;;;2.16;100.00;95442.06;5016024;28;20400;-65
2022/03/05 09:05:06;;;;;;;11.32;6.50;;;;;;;2.09;100.00;95447.38;5034250;28;20032;-65
2022/03/05 09:07:31;;;;;;;12.07;6.95;;;;;;;2.51;100.00;95440.03;5034161;28;20028;-65
2022/03/05 09:10:00;;;;;;;12.35;6.95;;;;;;;2.85;100.00;95446.88;5033777;28;20108;-65
2022/03/05 09:12:25;;;;;;;12.60;7.10;;;;;;;2.71;100.00;95469.06;5033611;28;20423;-65
2022/03/05 09:14:53;;;;;;;13.35;7.43;;;;;;;2.86;100.00;95469.66;5033919;28;20330;-65
2022/03/05 09:17:19;;;;;;;13.23;6.82;;;;;;;2.83;100.00;95480.66;5021589;28;20435;-65
2022/03/05 09:19:44;;;;;;;13.32;7.10;;;;;;;2.84;100.00;95479.66;5033648;28;20021;-65
2022/03/05 09:22:10;;;;;;;12.57;7.22;;;;;;;3.08;100.00;95478.16;5033528;28;20071;-65
2022/03/05 09:24:38;;;;;;;15.15;7.68;;;;;;;3.01;100.00;95480.00;5033671;28;20075;-65
2022/03/05 09:27:05;;;;;;;13.48;7.20;;;;;;;2.99;100.00;95484.69;5033769;28;20022;-65
2022/03/05 09:29:30;;;;;;;10.77;6.97;;;;;;;3.33;100.00;95478.25;5015858;28;20094;-64
2022/03/05 09:32:02;;;;;;;14.57;7.57;;;;;;;3.71;100.00;95494.19;5033664;28;20037;-65
2022/03/05 09:34:28;;;;;;;12.20;7.38;;;;;;;3.78;100.00;95502.91;5033399;28;20029;-65
2022/03/05 09:36:54;;;;;;;13.75;7.10;;;;;;;3.93;100.00;95505.28;5033491;28;20036;-65
2022/03/05 09:39:19;;;;;;;14.48;7.93;;;;;;;4.37;100.00;95501.72;5015389;28;20021;-65
2022/03/05 09:41:48;;;;;;;13.65;7.18;;;;;;;4.68;100.00;95500.88;5015788;28;20049;-65
2022/03/05 09:44:13;;;;;;;13.43;7.32;;;;;;;4.38;99.53;95523.75;5015475;28;20029;-65
2022/03/05 09:46:41;;;;;;;11.80;7.30;;;;;;;4.30;99.91;95520.31;5033382;28;20024;-65
2022/03/05 09:49:08;;;;;;;14.75;7.65;;;;;;;4.46;99.29;95523.50;5033076;28;20025;-65
2022/03/05 09:51:35;;;;;;;12.82;7.65;;;;;;;4.52;98.86;95523.44;5022151;28;20392;-65
2022/03/05 09:54:03;;;;;;;12.35;7.13;;;;;;;4.60;98.22;95523.16;5027868;28;20022;-65
2022/03/05 09:56:31;;;;;;;15.85;8.57;;;;;;;5.03;98.39;95513.59;5014432;28;20026;-65
2022/03/05 09:58:59;;;;;;;12.82;7.13;;;;;;;5.35;96.14;95517.75;5033259;28;20429;-65
2022/03/05 10:01:29;;;;;;;13.40;7.22;;;;;;;5.32;93.91;95530.63;5023044;28;20025;-65
2022/03/05 10:03:55;;;;;;;11.00;7.30;;;;;;;5.14;93.06;95534.13;5033192;28;20025;-66
2022/03/05 10:06:27;;;;;;;11.93;7.15;;;;;;;5.26;93.41;95529.69;5011067;28;20040;-65
2022/03/05 10:08:55;;;;;;;12.05;7.82;;;;;;;5.42;92.41;95526.44;5031758;28;20021;-65
2022/03/05 10:11:24;;;;;;;13.00;7.43;;;;;;;5.63;91.25;95530.50;5032399;28;20022;-65
2022/03/05 10:13:50;;;;;;;14.13;7.93;;;;;;;5.83;89.87;95538.22;5015266;28;20025;-65
2022/03/05 10:16:31;;;;;;;12.05;7.90;;;;;;;5.76;89.63;95543.66;5024922;28;20133;-65
2022/03/05 10:18:58;;;;;;;13.48;7.65;;;;;;;5.97;89.62;95536.22;5015016;28;20132;-66
2022/03/05 10:21:31;;;;;;;13.02;7.80;;;;;;;6.03;87.49;95548.66;5031416;28;20025;-66
2022/03/05 10:24:12;;;;;;;17.40;9.13;;;;;;;6.16;86.17;95534.34;5014913;28;20037;-65
2022/03/05 10:26:57;;;;;;;16.13;8.05;;;;;;;6.05;84.60;95555.34;5015890;28;20480;-66
2022/03/05 10:29:40;;;;;;;16.08;8.68;;;;;;;6.19;84.78;95539.25;5015381;28;20108;-65
2022/03/05 10:32:15;;;;;;;19.58;8.80;;;;;;;6.58;85.64;95546.63;5033196;28;20021;-65
2022/03/05 10:34:48;;;;;;;15.13;7.85;;;;;;;6.91;84.39;95547.94;5033137;28;20396;-65
2022/03/05 10:37:14;;;;;;;13.32;8.02;;;;;;;6.35;81.65;95550.03;5033028;28;20017;-65
2022/03/05 10:39:39;;;;;;;13.93;8.68;;;;;;;6.42;83.38;95538.50;5033029;28;20025;-66
2022/03/05 10:42:27;;;;;;;14.27;8.43;;;;;;;6.17;82.43;95544.75;5032984;28;20025;-65
2022/03/05 10:45:07;;;;;;;13.57;8.27;;;;;;;6.14;83.92;95539.91;5015380;28;20068;-66
2022/03/05 10:47:43;;;;;;;17.77;9.18;;;;;;;6.33;83.85;95530.84;5033088;28;20029;-66
2022/03/05 10:50:15;;;;;;;13.30;8.35;;;;;;;6.47;83.62;95544.75;5032933;28;20032;-66
2022/03/05 10:52:49;;;;;;;13.68;8.55;;;;;;;6.82;83.02;95542.16;5032777;28;20033;-65
2022/03/05 10:55:25;;;;;;;16.85;8.63;;;;;;;6.64;83.22;95539.59;5014393;28;20571;-65
2022/03/05 10:58:00;;;;;;;15.52;9.38;;;;;;;6.83;82.26;95537.63;5032836;28;20262;-65
2022/03/05 11:00:28;;;;;;;18.40;9.65;;;;;;;7.04;82.52;95534.41;5032519;28;20033;-65
2022/03/05 11:03:03;;;;;;;15.45;8.90;;;;;;;7.34;81.32;95544.94;5014391;23;20726;-63
2022/03/05 11:05:32;;;;;;;16.55;9.77;;;;;;;7.47;78.58;95541.22;4973404;28;20589;-60
2022/03/05 11:08:05;;;;;;;15.60;9.05;;;;;;;6.78;76.82;95546.31;4991759;28;20114;-60
2022/03/05 11:10:30;;;;;;;15.73;10.18;;;;;;;6.42;78.65;95541.97;4993241;28;20041;-64
2022/03/05 11:12:59;;;;;;;16.90;9.02;;;;;;;6.78;79.57;95541.00;5009923;28;20032;-63
2022/03/05 11:15:27;;;;;;;14.70;8.38;;;;;;;6.96;79.26;95543.56;5012952;28;20025;-60
2022/03/05 11:17:53;;;;;;;16.83;8.65;;;;;;;6.88;79.77;95535.91;4994852;28;20076;-61
2022/03/05 11:20:28;;;;;;;16.80;9.05;;;;;;;6.94;79.33;95536.81;5012851;28;20511;-63
2022/03/05 11:22:55;;;;;;;15.50;9.73;;;;;;;6.90;80.25;95533.81;5002518;28;20072;-62
2022/03/05 11:25:28;;;;;;;21.48;10.95;;;;;;;6.72;79.55;95543.75;4990910;28;20038;-62
2022/03/05 11:27:58;;;;;;;14.27;9.05;;;;;;;6.78;79.22;95530.34;5009789;28;20022;-60